Time;durP1;ratioP1;P1;durP2;ratioP2;P2;SDS_P1;SDS_P2;PMS_P1;PMS_P2;Temp;Humidity;BMP_temperature;BMP_pressure;BME280_temperature;BME280_humidity;BME280_pressure;Samples;Min_cycle;Max_cycle;Signal;HPM_P1;HPM_P2
2023/09/25 00:01:43;;;;;;;3.27;2.70;;;10.10;99.90;;;;;;5026726;28;20231;-80
2023/09/25 00:04:10;;;;;;;5.23;2.60;;;10.00;99.90;;;;;;5024819;28;20233;-80
2023/09/25 00:06:36;;;;;;;3.17;2.77;;;10.00;99.90;;;;;;5024494;28;20229;-80
2023/09/25 00:09:05;;;;;;;2.90;2.30;;;10.00;99.90;;;;;;5017611;28;20274;-79
2023/09/25 00:11:32;;;;;;;3.37;3.07;;;9.90;99.90;;;;;;5004090;28;20226;-81
2023/09/25 00:13:59;;;;;;;5.00;2.77;;;9.90;99.90;;;;;;5015266;28;20280;-80
2023/09/25 00:16:27;;;;;;;3.47;2.63;;;9.80;99.90;;;;;;5006520;28;20229;-80
2023/09/25 00:18:53;;;;;;;3.97;2.60;;;9.80;99.90;;;;;;5011385;28;20217;-80
2023/09/25 00:21:20;;;;;;;4.93;2.80;;;9.80;99.90;;;;;;5009252;28;20221;-80
2023/09/25 00:23:47;;;;;;;3.40;3.10;;;9.80;99.90;;;;;;5024459;28;20894;-80
2023/09/25 00:26:15;;;;;;;4.27;2.63;;;9.80;99.90;;;;;;5028225;28;20304;-81
2023/09/25 00:28:47;;;;;;;4.97;3.13;;;9.80;99.90;;;;;;5027600;28;20251;-80
2023/09/25 00:31:14;;;;;;;3.60;3.13;;;9.80;99.90;;;;;;5029552;28;20218;-80
2023/09/25 00:33:41;;;;;;;4.10;3.10;;;9.80;99.90;;;;;;5029211;28;20251;-80
2023/09/25 00:36:08;;;;;;;3.30;2.90;;;9.80;99.90;;;;;;5032515;28;20691;-80
2023/09/25 00:38:35;;;;;;;3.20;2.90;;;9.80;99.90;;;;;;5028754;28;20236;-81
2023/09/25 00:41:02;;;;;;;4.83;3.33;;;9.90;99.90;;;;;;5039268;28;20220;-81
2023/09/25 00:43:30;;;;;;;3.87;3.10;;;9.90;99.90;;;;;;5017554;28;20229;-81
2023/09/25 00:45:57;;;;;;;5.00;2.90;;;9.90;99.90;;;;;;5031594;28;20328;-81
2023/09/25 00:48:27;;;;;;;4.33;3.13;;;10.00;99.90;;;;;;5029636;28;20252;-81
2023/09/25 00:50:55;;;;;;;3.70;3.23;;;9.90;99.90;;;;;;5026050;28;20274;-81
2023/09/25 00:53:22;;;;;;;3.90;2.90;;;10.00;99.90;;;;;;5028184;28;20244;-81
2023/09/25 00:55:49;;;;;;;3.27;2.80;;;10.00;99.90;;;;;;5048178;28;20251;-81
2023/09/25 00:58:17;;;;;;;3.47;2.97;;;10.00;99.90;;;;;;5009296;28;20331;-80
2023/09/25 01:00:46;;;;;;;3.47;2.80;;;10.00;99.90;;;;;;5025564;28;20243;-80
2023/09/25 01:03:13;;;;;;;4.33;2.87;;;10.00;99.90;;;;;;5025716;28;20240;-80
2023/09/25 01:05:41;;;;;;;3.93;2.80;;;10.00;99.90;;;;;;5023807;28;20710;-80
2023/09/25 01:08:08;;;;;;;3.23;2.93;;;10.00;99.90;;;;;;5006293;28;20994;-80
2023/09/25 01:10:37;;;;;;;3.20;2.90;;;10.00;99.90;;;;;;5026543;28;20221;-80
2023/09/25 01:13:05;;;;;;;4.30;2.70;;;10.00;99.90;;;;;;5011598;28;20221;-81
2023/09/25 01:15:32;;;;;;;3.50;2.80;;;10.00;99.90;;;;;;5010105;28;20236;-81
2023/09/25 01:18:00;;;;;;;3.10;2.80;;;10.00;99.90;;;;;;5022532;28;20234;-81
2023/09/25 01:20:27;;;;;;;4.10;3.13;;;10.10;99.90;;;;;;5024712;28;20224;-80
2023/09/25 01:22:56;;;;;;;3.73;2.83;;;10.00;99.90;;;;;;5055956;28;20228;-81
2023/09/25 01:25:24;;;;;;;3.80;3.00;;;10.10;99.90;;;;;;5032143;28;20228;-80
2023/09/25 01:27:51;;;;;;;5.20;2.60;;;10.10;99.90;;;;;;5027731;28;20641;-80
2023/09/25 01:30:19;;;;;;;5.60;3.10;;;10.10;99.90;;;;;;5030794;28;20223;-79
2023/09/25 01:32:48;;;;;;;3.37;2.90;;;10.00;99.90;;;;;;5023039;28;20217;-80
2023/09/25 01:35:17;;;;;;;3.33;2.70;;;10.00;99.90;;;;;;5028403;28;20236;-80
2023/09/25 01:37:45;;;;;;;3.83;2.90;;;10.00;99.90;;;;;;5049180;28;20231;-81
2023/09/25 01:40:14;;;;;;;3.67;2.93;;;10.10;99.90;;;;;;5041740;28;20761;-81
2023/09/25 01:42:41;;;;;;;2.93;2.50;;;10.00;99.90;;;;;;5022050;28;20228;-80
2023/09/25 01:45:10;;;;;;;2.93;2.57;;;10.00;99.90;;;;;;5025884;28;20243;-81
2023/09/25 01:47:37;;;;;;;3.77;2.70;;;10.10;99.90;;;;;;5029849;28;20213;-80
2023/09/25 01:50:08;;;;;;;3.93;2.83;;;10.00;99.90;;;;;;5031313;28;20568;-81
2023/09/25 01:52:35;;;;;;;2.43;2.23;;;10.00;99.90;;;;;;5029330;28;20459;-81
2023/09/25 01:55:03;;;;;;;3.60;2.50;;;10.10;99.90;;;;;;5017608;28;20276;-81
2023/09/25 01:57:31;;;;;;;2.80;2.47;;;10.10;99.90;;;;;;5024158;28;20286;-81
2023/09/25 01:59:58;;;;;;;4.20;2.87;;;10.00;99.90;;;;;;5022916;28;20230;-79
2023/09/25 02:02:25;;;;;;;3.13;2.60;;;10.10;99.90;;;;;;5057106;28;20226;-79
2023/09/25 02:04:52;;;;;;;2.70;2.40;;;10.10;99.90;;;;;;5024072;28;20283;-79
2023/09/25 02:07:18;;;;;;;3.57;2.70;;;10.10;99.90;;;;;;5028891;28;20648;-80
2023/09/25 02:09:46;;;;;;;2.90;2.63;;;10.10;99.90;;;;;;5056529;28;20244;-81
2023/09/25 02:12:13;;;;;;;3.83;2.50;;;10.10;99.90;;;;;;5022901;28;20959;-81
2023/09/25 02:14:41;;;;;;;2.80;2.57;;;10.10;99.90;;;;;;5025871;28;20229;-81
2023/09/25 02:17:07;;;;;;;3.93;2.70;;;10.10;99.90;;;;;;5021219;28;20216;-81
2023/09/25 02:19:34;;;;;;;3.70;2.70;;;10.10;99.90;;;;;;5028567;28;20307;-81
2023/09/25 02:22:03;;;;;;;3.40;2.87;;;10.10;99.90;;;;;;5028111;28;20249;-80
2023/09/25 02:24:30;;;;;;;3.00;2.70;;;10.10;99.90;;;;;;5017930;28;20226;-79
2023/09/25 02:26:57;;;;;;;3.83;3.17;;;10.10;99.90;;;;;;5057585;28;20286;-80
2023/09/25 02:29:24;;;;;;;3.10;2.80;;;10.10;99.90;;;;;;5046776;28;20236;-81
2023/09/25 02:31:53;;;;;;;5.80;2.97;;;10.10;99.90;;;;;;5031910;28;20220;-80
2023/09/25 02:34:20;;;;;;;4.47;2.70;;;10.10;99.90;;;;;;5030423;28;20221;-80
2023/09/25 02:36:47;;;;;;;3.80;2.67;;;10.10;99.90;;;;;;5051519;28;20219;-79
2023/09/25 02:39:14;;;;;;;6.27;2.97;;;10.10;99.90;;;;;;5047708;28;20907;-79
2023/09/25 02:41:41;;;;;;;3.90;2.60;;;10.10;99.90;;;;;;5026511;28;20244;-80
2023/09/25 02:44:07;;;;;;;4.73;2.90;;;10.10;99.90;;;;;;5034259;28;20232;-81
2023/09/25 02:46:34;;;;;;;4.00;3.33;;;10.10;99.90;;;;;;5032086;28;20230;-80
2023/09/25 02:49:02;;;;;;;3.43;2.77;;;10.00;99.90;;;;;;5017013;28;20234;-81
2023/09/25 02:51:29;;;;;;;3.47;2.77;;;10.10;99.90;;;;;;5026183;28;20886;-81
2023/09/25 02:53:56;;;;;;;4.43;3.00;;;10.00;99.90;;;;;;5044151;28;20273;-81
2023/09/25 02:56:23;;;;;;;3.80;3.30;;;10.00;99.90;;;;;;5030256;28;20228;-81
2023/09/25 02:58:50;;;;;;;4.93;3.60;;;10.00;99.90;;;;;;5033368;28;20327;-79
2023/09/25 03:01:17;;;;;;;3.97;3.17;;;9.90;99.90;;;;;;5031720;28;20583;-80
2023/09/25 03:03:43;;;;;;;3.43;3.00;;;9.90;99.90;;;;;;5038546;28;20624;-80
2023/09/25 03:06:11;;;;;;;4.93;3.50;;;9.90;99.90;;;;;;5031835;28;20704;-81
2023/09/25 03:08:38;;;;;;;3.50;3.20;;;9.80;99.90;;;;;;5024817;28;20247;-81
2023/09/25 03:11:05;;;;;;;4.80;3.93;;;9.80;99.90;;;;;;5040391;28;20719;-82
2023/09/25 03:13:32;;;;;;;3.80;3.40;;;9.80;99.90;;;;;;5028955;28;20232;-81
2023/09/25 03:15:59;;;;;;;5.40;3.70;;;9.80;99.90;;;;;;5043858;28;20232;-81
2023/09/25 03:18:26;;;;;;;5.63;3.53;;;9.70;99.90;;;;;;5034891;28;20281;-81
2023/09/25 03:20:53;;;;;;;4.07;3.73;;;9.70;99.90;;;;;;5048300;28;20680;-81
2023/09/25 03:23:21;;;;;;;6.40;4.23;;;9.70;99.90;;;;;;5033631;28;20793;-80
2023/09/25 03:25:48;;;;;;;4.10;3.47;;;9.70;99.90;;;;;;5029138;28;20259;-80
2023/09/25 03:28:15;;;;;;;4.90;4.13;;;9.70;99.90;;;;;;5057792;28;20220;-80
2023/09/25 03:30:42;;;;;;;5.93;3.90;;;9.60;99.90;;;;;;5031120;28;20278;-80
2023/09/25 03:33:09;;;;;;;4.93;4.00;;;9.70;99.90;;;;;;5029773;28;20224;-80
2023/09/25 03:35:37;;;;;;;5.57;4.10;;;9.60;99.90;;;;;;5033486;28;20654;-80
2023/09/25 03:38:04;;;;;;;4.57;3.80;;;9.60;99.90;;;;;;5046056;28;20236;-80
2023/09/25 03:40:33;;;;;;;6.97;4.00;;;9.60;99.90;;;;;;5029702;28;20284;-80
2023/09/25 03:42:59;;;;;;;5.93;4.00;;;9.60;99.90;;;;;;5027126;28;20258;-81
2023/09/25 03:45:28;;;;;;;4.43;3.87;;;9.60;99.90;;;;;;5035470;28;20225;-79
2023/09/25 03:47:54;;;;;;;5.40;3.87;;;9.70;99.90;;;;;;5033917;28;20231;-80
2023/09/25 03:50:21;;;;;;;3.70;3.37;;;9.70;99.90;;;;;;5040891;28;20589;-80
2023/09/25 03:52:48;;;;;;;3.80;3.50;;;9.70;99.90;;;;;;5034518;28;20223;-80
2023/09/25 03:55:15;;;;;;;4.83;3.70;;;9.70;99.90;;;;;;5026842;28;20278;-80
2023/09/25 03:57:43;;;;;;;4.43;3.83;;;9.70;99.90;;;;;;5032275;28;20224;-81
2023/09/25 04:00:11;;;;;;;6.10;3.67;;;9.80;99.90;;;;;;5018473;28;20326;-80
2023/09/25 04:02:41;;;;;;;4.27;3.73;;;9.80;99.90;;;;;;5018987;28;20222;-81
2023/09/25 04:05:09;;;;;;;4.47;3.90;;;9.80;99.90;;;;;;5010500;28;20252;-81
2023/09/25 04:07:36;;;;;;;4.73;3.37;;;9.80;99.90;;;;;;5011918;28;20224;-81
2023/09/25 04:10:02;;;;;;;6.43;3.80;;;9.80;99.90;;;;;;5011216;28;20225;-80
2023/09/25 04:12:30;;;;;;;5.97;3.60;;;9.80;99.90;;;;;;5008156;28;20241;-81
2023/09/25 04:14:58;;;;;;;3.83;3.30;;;9.80;99.90;;;;;;5007834;28;20234;-80
2023/09/25 04:17:25;;;;;;;3.40;3.10;;;9.80;99.90;;;;;;5002447;28;20323;-79
2023/09/25 04:19:52;;;;;;;6.47;3.63;;;9.80;99.90;;;;;;4998287;28;20281;-80
2023/09/25 04:22:20;;;;;;;3.90;3.47;;;9.80;99.90;;;;;;5003088;28;20248;-80
2023/09/25 04:24:47;;;;;;;4.90;3.23;;;9.80;99.90;;;;;;5008443;28;20241;-80
2023/09/25 04:27:14;;;;;;;3.53;3.17;;;9.80;99.90;;;;;;5038929;28;20237;-80
2023/09/25 04:29:42;;;;;;;4.07;3.53;;;9.80;99.90;;;;;;5028110;28;20317;-81
2023/09/25 04:32:11;;;;;;;3.60;3.07;;;9.80;99.90;;;;;;5027822;28;20231;-80
2023/09/25 04:34:38;;;;;;;3.63;3.30;;;9.70;99.90;;;;;;5023128;28;20226;-80
2023/09/25 04:37:07;;;;;;;4.27;3.37;;;9.70;99.90;;;;;;5027599;28;20244;-82
2023/09/25 04:39:35;;;;;;;3.50;3.20;;;9.70;99.90;;;;;;5030361;28;20228;-81
2023/09/25 04:42:02;;;;;;;4.03;3.17;;;9.70;99.90;;;;;;5055418;28;20232;-80
2023/09/25 04:44:29;;;;;;;4.70;3.37;;;9.70;99.90;;;;;;5026511;28;20218;-79
2023/09/25 04:46:56;;;;;;;3.90;3.10;;;9.70;99.90;;;;;;5014101;28;20293;-80
2023/09/25 04:49:24;;;;;;;4.83;3.77;;;9.70;99.90;;;;;;5024084;28;20221;-82
2023/09/25 04:51:51;;;;;;;3.93;3.07;;;9.70;99.90;;;;;;5029552;28;20228;-81
2023/09/25 04:54:19;;;;;;;3.63;3.10;;;9.60;99.90;;;;;;5023801;28;20225;-83
2023/09/25 04:56:46;;;;;;;3.47;3.17;;;9.70;99.90;;;;;;5025487;28;20221;-82
2023/09/25 04:59:13;;;;;;;4.07;3.23;;;9.60;99.90;;;;;;5020433;28;20343;-83
2023/09/25 05:01:40;;;;;;;5.17;3.40;;;9.60;99.90;;;;;;5061679;28;20232;-82
2023/09/25 05:04:07;;;;;;;3.90;3.30;;;9.60;99.90;;;;;;5058753;28;20241;-83
2023/09/25 05:06:35;;;;;;;4.17;3.47;;;9.60;99.90;;;;;;5028155;28;20310;-83
2023/09/25 05:09:03;;;;;;;5.67;3.40;;;9.60;99.90;;;;;;5029985;28;20251;-83
2023/09/25 05:11:30;;;;;;;4.27;3.67;;;9.60;99.90;;;;;;5032322;28;20241;-83
2023/09/25 05:13:57;;;;;;;6.13;3.73;;;9.60;99.90;;;;;;5028442;28;20252;-82
2023/09/25 05:16:24;;;;;;;4.80;4.17;;;9.60;99.90;;;;;;5033361;28;20237;-82
2023/09/25 05:18:50;;;;;;;6.33;4.17;;;9.60;99.90;;;;;;5038281;28;20277;-83
2023/09/25 05:21:17;;;;;;;4.10;3.60;;;9.60;99.90;;;;;;5031407;28;20236;-83
2023/09/25 05:23:46;;;;;;;5.47;3.70;;;9.70;99.90;;;;;;5033560;28;20308;-82
2023/09/25 05:26:13;;;;;;;5.17;4.10;;;9.60;99.90;;;;;;5031013;28;20233;-82
2023/09/25 05:28:40;;;;;;;4.80;4.00;;;9.60;99.90;;;;;;5053170;28;20228;-82
2023/09/25 05:31:07;;;;;;;4.33;3.80;;;9.60;99.90;;;;;;5023801;28;20228;-83
2023/09/25 05:33:34;;;;;;;4.97;4.07;;;9.60;99.90;;;;;;5031227;28;20635;-83
2023/09/25 05:36:01;;;;;;;6.33;3.90;;;9.60;99.90;;;;;;5018021;28;20224;-82
2023/09/25 05:38:28;;;;;;;4.20;3.80;;;9.70;99.90;;;;;;5028037;28;20303;-85
2023/09/25 05:40:56;;;;;;;5.83;4.47;;;9.70;99.90;;;;;;5024956;28;20220;-81
2023/09/25 05:43:23;;;;;;;4.97;4.10;;;9.70;99.90;;;;;;5029784;28;20247;-83
2023/09/25 05:45:50;;;;;;;4.23;3.83;;;9.70;99.90;;;;;;5013052;28;20313;-82
2023/09/25 05:48:17;;;;;;;5.00;3.73;;;9.70;99.90;;;;;;5013565;28;20251;-82
2023/09/25 05:50:43;;;;;;;4.63;4.17;;;9.80;99.90;;;;;;5026634;28;20245;-83
2023/09/25 05:53:10;;;;;;;4.77;4.23;;;9.80;99.90;;;;;;5023663;28;20233;-82
2023/09/25 05:55:37;;;;;;;5.57;3.70;;;9.90;99.90;;;;;;5046525;28;20286;-81
2023/09/25 05:58:05;;;;;;;4.53;4.13;;;9.90;99.90;;;;;;5023517;28;20753;-81
2023/09/25 06:00:34;;;;;;;6.10;4.30;;;9.90;99.90;;;;;;5026016;28;20223;-84
2023/09/25 06:03:01;;;;;;;5.00;4.23;;;10.00;99.90;;;;;;5014780;28;20234;-82
2023/09/25 06:05:28;;;;;;;4.47;4.07;;;10.10;99.90;;;;;;5029470;28;20271;-83
2023/09/25 06:07:54;;;;;;;5.57;4.33;;;10.10;99.90;;;;;;5026191;28;20222;-82
2023/09/25 06:10:23;;;;;;;4.37;3.97;;;10.20;99.90;;;;;;5029259;28;20247;-83
2023/09/25 06:12:50;;;;;;;5.53;4.27;;;10.20;99.90;;;;;;5045107;28;20236;-83
2023/09/25 06:15:18;;;;;;;4.90;4.20;;;10.20;99.90;;;;;;5026979;28;20724;-83
2023/09/25 06:17:47;;;;;;;5.20;4.70;;;10.30;99.90;;;;;;5046008;28;20335;-79
2023/09/25 06:20:16;;;;;;;5.17;4.13;;;10.40;99.90;;;;;;5035140;28;20325;-81
2023/09/25 06:22:44;;;;;;;4.67;4.00;;;10.50;99.90;;;;;;5033611;28;20272;-81
2023/09/25 06:25:13;;;;;;;4.47;4.00;;;10.50;99.90;;;;;;5032615;28;20877;-80
2023/09/25 06:27:44;;;;;;;5.80;4.07;;;10.60;99.90;;;;;;5033502;28;20231;-82
2023/09/25 06:30:11;;;;;;;5.70;4.17;;;10.70;99.90;;;;;;5022355;28;20240;-81
2023/09/25 06:32:40;;;;;;;4.77;3.80;;;10.70;99.90;;;;;;5029581;28;20314;-80
2023/09/25 06:35:07;;;;;;;6.03;4.10;;;10.80;99.90;;;;;;5031450;28;20228;-81
2023/09/25 06:37:34;;;;;;;4.50;3.60;;;10.80;99.90;;;;;;5014641;28;20329;-81
2023/09/25 06:40:03;;;;;;;4.93;3.97;;;10.90;99.90;;;;;;5027891;28;20225;-80
2023/09/25 06:42:30;;;;;;;5.43;3.87;;;11.00;99.90;;;;;;5034348;28;20255;-81
2023/09/25 06:44:56;;;;;;;4.63;3.70;;;11.10;99.90;;;;;;5045027;28;20224;-81
2023/09/25 06:47:23;;;;;;;7.40;4.03;;;11.10;99.90;;;;;;5025295;28;21906;-80
2023/09/25 06:49:51;;;;;;;5.20;4.00;;;11.20;99.90;;;;;;5061032;28;20226;-80
2023/09/25 06:52:18;;;;;;;5.10;4.03;;;11.20;99.90;;;;;;5028492;28;20269;-80
2023/09/25 06:54:44;;;;;;;5.03;4.00;;;11.30;99.90;;;;;;5025032;28;20308;-81
2023/09/25 06:57:11;;;;;;;4.57;3.67;;;11.40;99.90;;;;;;5024769;28;20221;-80
2023/09/25 06:59:38;;;;;;;3.60;3.30;;;11.50;99.90;;;;;;5018049;28;20734;-81
2023/09/25 07:02:05;;;;;;;4.30;3.80;;;11.50;99.90;;;;;;5025493;28;20721;-80
2023/09/25 07:04:32;;;;;;;4.20;3.50;;;11.60;99.90;;;;;;5042001;28;20233;-81
2023/09/25 07:07:00;;;;;;;3.90;3.10;;;11.60;99.90;;;;;;5023154;28;20226;-81
2023/09/25 07:09:27;;;;;;;3.60;3.30;;;11.70;99.90;;;;;;5031377;28;20237;-81
2023/09/25 07:11:53;;;;;;;5.57;3.60;;;11.70;99.90;;;;;;5027919;28;20314;-81
2023/09/25 07:14:21;;;;;;;5.13;3.53;;;11.80;99.90;;;;;;5029580;28;20291;-81
2023/09/25 07:16:48;;;;;;;5.47;3.53;;;11.80;99.90;;;;;;5024572;28;20240;-81
2023/09/25 07:19:15;;;;;;;5.37;3.20;;;11.90;99.90;;;;;;5028593;28;20230;-81
2023/09/25 07:21:41;;;;;;;3.43;3.10;;;11.90;99.90;;;;;;5029304;28;20226;-80
2023/09/25 07:24:10;;;;;;;4.47;2.77;;;12.00;99.90;;;;;;5026152;28;20228;-81
2023/09/25 07:26:36;;;;;;;4.13;3.00;;;12.00;99.90;;;;;;5023809;28;20238;-81
2023/09/25 07:29:03;;;;;;;3.30;3.00;;;12.10;99.90;;;;;;5024917;28;20311;-80
2023/09/25 07:31:30;;;;;;;4.13;3.30;;;12.30;99.90;;;;;;5028466;28;20256;-81
2023/09/25 07:33:58;;;;;;;3.97;2.80;;;12.30;99.90;;;;;;5016317;28;20219;-81
2023/09/25 07:36:25;;;;;;;5.07;2.73;;;12.40;99.90;;;;;;5026743;28;20255;-81
2023/09/25 07:38:52;;;;;;;3.10;2.80;;;12.50;99.90;;;;;;5020695;28;20227;-80
2023/09/25 07:41:19;;;;;;;3.97;2.63;;;12.70;99.90;;;;;;5026668;28;20237;-81
2023/09/25 07:43:48;;;;;;;5.00;3.10;;;12.70;99.90;;;;;;5025091;28;20234;-80
2023/09/25 07:46:17;;;;;;;3.80;3.13;;;12.80;99.90;;;;;;5026520;28;20228;-81
2023/09/25 07:48:44;;;;;;;4.67;2.80;;;12.90;99.90;;;;;;5025478;28;20252;-80
2023/09/25 07:51:12;;;;;;;4.97;2.70;;;13.10;99.90;;;;;;5025499;28;20693;-80
2023/09/25 07:53:39;;;;;;;3.47;3.17;;;13.10;99.90;;;;;;5029202;28;20225;-81
2023/09/25 07:56:06;;;;;;;3.90;2.77;;;13.20;99.90;;;;;;5028361;28;20228;-81
2023/09/25 07:58:38;;;;;;;4.63;2.80;;;13.30;99.90;;;;;;5028467;28;20241;-81
2023/09/25 08:01:08;;;;;;;3.77;2.47;;;13.40;99.90;;;;;;5040991;28;20230;-81
2023/09/25 08:03:36;;;;;;;2.87;2.37;;;13.50;99.90;;;;;;5029832;28;20872;-80
2023/09/25 08:06:05;;;;;;;4.40;2.60;;;13.60;99.90;;;;;;5027528;28;20231;-81
2023/09/25 08:08:32;;;;;;;3.60;2.67;;;13.70;99.90;;;;;;5047920;28;20285;-81
2023/09/25 08:10:59;;;;;;;2.47;2.27;;;13.80;99.90;;;;;;5033148;28;20220;-81
2023/09/25 08:13:26;;;;;;;3.37;2.33;;;14.00;99.90;;;;;;5033015;28;20275;-80
2023/09/25 08:15:54;;;;;;;3.57;2.30;;;14.20;99.90;;;;;;5029309;28;20227;-80
2023/09/25 08:18:21;;;;;;;3.10;2.17;;;14.30;99.90;;;;;;5027855;28;20323;-80
2023/09/25 08:20:47;;;;;;;2.13;1.93;;;14.40;99.90;;;;;;5030557;28;20259;-80
2023/09/25 08:23:14;;;;;;;2.57;2.10;;;14.50;99.90;;;;;;5026998;28;20244;-81
2023/09/25 08:25:41;;;;;;;3.87;2.63;;;14.70;99.90;;;;;;5043587;28;20237;-81
2023/09/25 08:28:07;;;;;;;2.93;2.33;;;14.80;99.90;;;;;;5025666;28;20298;-80
2023/09/25 08:30:34;;;;;;;5.03;2.20;;;14.90;99.90;;;;;;5021047;28;20225;-80
2023/09/25 08:33:02;;;;;;;2.47;2.20;;;15.00;99.90;;;;;;5026321;28;20227;-81
2023/09/25 08:35:29;;;;;;;2.27;2.00;;;15.20;99.90;;;;;;5023351;28;20236;-80
2023/09/25 08:37:55;;;;;;;2.10;1.90;;;15.40;99.90;;;;;;5022330;28;20228;-80
2023/09/25 08:40:22;;;;;;;2.83;1.90;;;15.60;99.90;;;;;;5023866;28;20701;-79
2023/09/25 08:42:51;;;;;;;2.47;2.00;;;15.90;99.90;;;;;;5024355;28;20217;-80
2023/09/25 08:45:19;;;;;;;1.97;1.63;;;16.10;99.90;;;;;;5023601;28;20217;-79
2023/09/25 08:47:46;;;;;;;2.50;1.87;;;16.30;99.90;;;;;;5021920;28;20221;-79
2023/09/25 08:50:14;;;;;;;3.07;1.67;;;16.50;99.90;;;;;;5024730;28;20232;-80
2023/09/25 08:52:41;;;;;;;1.97;1.77;;;16.70;99.90;;;;;;5025741;28;20232;-79
2023/09/25 08:55:09;;;;;;;2.60;1.80;;;16.90;99.90;;;;;;5026964;28;20231;-79
2023/09/25 08:57:38;;;;;;;3.00;1.73;;;17.20;99.90;;;;;;5027173;28;20236;-79
2023/09/25 09:00:11;;;;;;;3.87;1.57;;;17.50;99.90;;;;;;5028383;28;20314;-80
2023/09/25 09:02:40;;;;;;;2.00;1.60;;;17.80;99.90;;;;;;5028011;28;20915;-80
2023/09/25 09:05:07;;;;;;;1.95;1.50;;;18.00;99.90;;;;;;5021739;28;20306;-79
2023/09/25 09:07:35;;;;;;;2.63;1.40;;;18.40;99.90;;;;;;5026978;28;20220;-79
2023/09/25 09:10:02;;;;;;;2.13;1.30;;;18.60;99.90;;;;;;5026170;28;20223;-80
2023/09/25 09:12:29;;;;;;;3.17;1.05;;;19.00;99.90;;;;;;5014279;28;20225;-80
2023/09/25 09:14:56;;;;;;;2.22;1.27;;;19.20;99.90;;;;;;5025765;28;20216;-80
2023/09/25 09:17:29;;;;;;;1.75;1.17;;;19.60;99.90;;;;;;5030189;28;20758;-80
2023/09/25 09:19:57;;;;;;;2.17;1.13;;;19.90;99.70;;;;;;5034976;28;20803;-80
2023/09/25 09:22:24;;;;;;;1.92;1.27;;;20.20;99.90;;;;;;5031255;28;20237;-80
2023/09/25 09:24:52;;;;;;;2.15;1.23;;;20.60;99.90;;;;;;5027559;28;20229;-80
2023/09/25 09:27:21;;;;;;;1.88;1.20;;;20.90;98.10;;;;;;5032543;28;20217;-80
2023/09/25 09:29:52;;;;;;;1.75;1.13;;;21.10;97.40;;;;;;5026356;28;20223;-80
2023/09/25 09:32:19;;;;;;;1.85;1.30;;;21.30;97.80;;;;;;5029543;28;20233;-80
2023/09/25 09:34:48;;;;;;;1.27;1.15;;;21.40;97.10;;;;;;5033111;28;20221;-80
2023/09/25 09:37:15;;;;;;;2.45;1.23;;;21.40;96.80;;;;;;5030637;28;20271;-80
2023/09/25 09:39:45;;;;;;;1.20;1.10;;;21.50;96.70;;;;;;5028795;28;20224;-80
2023/09/25 09:42:14;;;;;;;1.95;1.30;;;21.50;96.00;;;;;;5035371;28;20225;-80
2023/09/25 09:44:41;;;;;;;2.45;1.33;;;21.60;96.40;;;;;;5029057;28;20228;-80
2023/09/25 09:47:08;;;;;;;1.45;1.10;;;21.60;95.90;;;;;;5028909;28;20217;-80
2023/09/25 09:49:39;;;;;;;2.22;1.15;;;21.60;95.20;;;;;;5026185;28;20221;-80
2023/09/25 09:52:06;;;;;;;3.65;1.27;;;21.70;95.80;;;;;;5030976;28;20217;-80
2023/09/25 09:54:37;;;;;;;1.85;1.15;;;21.80;96.50;;;;;;5022485;28;20640;-80
2023/09/25 09:57:03;;;;;;;2.53;1.30;;;21.80;96.20;;;;;;5027675;28;20222;-80
2023/09/25 09:59:31;;;;;;;3.13;1.15;;;21.80;94.30;;;;;;5034426;28;20739;-80
2023/09/25 10:01:58;;;;;;;4.97;1.15;;;21.80;95.00;;;;;;5030081;28;20232;-80
2023/09/25 10:04:26;;;;;;;1.20;1.00;;;21.90;94.90;;;;;;5029258;28;20230;-80
2023/09/25 10:06:54;;;;;;;3.85;1.27;;;21.90;95.70;;;;;;5017682;28;20228;-80
2023/09/25 10:09:21;;;;;;;1.20;1.10;;;21.90;95.20;;;;;;5029529;28;20220;-80
2023/09/25 10:11:49;;;;;;;2.03;1.20;;;22.00;94.60;;;;;;5028157;28;20213;-80
2023/09/25 10:14:20;;;;;;;1.60;1.00;;;22.00;94.00;;;;;;5027916;28;20228;-81
2023/09/25 10:17:03;;;;;;;1.88;1.20;;;22.00;93.80;;;;;;5031000;28;20585;-80
2023/09/25 10:19:52;;;;;;;2.25;1.10;;;22.00;93.50;;;;;;5042252;28;20900;-80
2023/09/25 10:22:21;;;;;;;2.88;1.40;;;22.10;93.90;;;;;;5027870;28;20221;-80
2023/09/25 10:24:49;;;;;;;1.17;1.08;;;22.20;93.50;;;;;;5031263;28;20703;-80
2023/09/25 10:27:17;;;;;;;1.70;1.15;;;22.10;91.00;;;;;;5046824;28;20278;-80
2023/09/25 10:30:13;;;;;;;1.27;1.13;;;22.10;92.40;;;;;;5029451;28;20730;-81
2023/09/25 10:32:42;;;;;;;2.50;1.27;;;22.10;91.10;;;;;;5015794;28;20225;-82
2023/09/25 10:35:42;;;;;;;4.00;1.70;;;22.10;92.20;;;;;;5046640;28;20836;-81
2023/09/25 10:38:19;;;;;;;1.98;1.30;;;22.00;91.90;;;;;;5029945;28;20224;-82
2023/09/25 10:40:48;;;;;;;1.13;1.02;;;22.20;92.60;;;;;;5059392;28;20220;-81
2023/09/25 10:43:17;;;;;;;1.70;1.10;;;22.20;92.40;;;;;;5033179;28;20246;-80
2023/09/25 10:45:44;;;;;;;1.33;1.10;;;22.30;92.50;;;;;;5027505;28;20225;-78
2023/09/25 10:48:12;;;;;;;21.23;1.85;;;22.30;91.60;;;;;;5028883;28;20296;-78
2023/09/25 10:50:39;;;;;;;2.75;1.17;;;22.20;91.20;;;;;;5029382;28;20240;-82
2023/09/25 10:53:06;;;;;;;1.80;1.30;;;22.30;91.90;;;;;;5062165;28;20225;-81
2023/09/25 10:55:34;;;;;;;2.55;1.38;;;22.20;90.70;;;;;;5028819;28;20232;-78
2023/09/25 10:58:01;;;;;;;1.60;1.30;;;22.30;91.00;;;;;;5029607;28;20217;-81
2023/09/25 11:00:28;;;;;;;2.03;1.30;;;22.20;90.40;;;;;;5030623;28;20240;-81
2023/09/25 11:02:55;;;;;;;2.95;1.33;;;22.10;89.20;;;;;;5033178;28;20753;-81
2023/09/25 11:05:24;;;;;;;1.60;1.20;;;22.20;90.30;;;;;;5028388;28;20235;-80
2023/09/25 11:07:50;;;;;;;1.73;1.35;;;22.10;88.80;;;;;;5027770;28;20241;-84
2023/09/25 11:10:17;;;;;;;3.20;1.50;;;22.10;90.70;;;;;;5019905;28;20239;-83
2023/09/25 11:12:47;;;;;;;1.35;1.23;;;22.10;90.70;;;;;;5011914;28;20221;-82
2023/09/25 11:15:17;;;;;;;3.95;1.05;;;22.20;89.00;;;;;;5031147;28;20312;-82
2023/09/25 11:17:45;;;;;;;2.08;1.38;;;22.20;89.30;;;;;;5022202;28;20234;-82
2023/09/25 11:20:18;;;;;;;1.40;1.20;;;22.40;90.30;;;;;;5015877;28;20222;-82
2023/09/25 11:22:48;;;;;;;1.80;1.45;;;22.60;89.20;;;;;;5033391;28;20745;-80
2023/09/25 11:25:16;;;;;;;1.80;1.05;;;22.50;87.60;;;;;;5025315;28;20232;-79
2023/09/25 11:27:52;;;;;;;2.70;1.20;;;22.70;89.40;;;;;;5027515;28;20254;-80
2023/09/25 11:30:20;;;;;;;3.63;1.33;;;22.70;87.90;;;;;;5024162;28;21134;-82
2023/09/25 11:32:46;;;;;;;1.58;1.20;;;22.70;87.00;;;;;;5028531;28;20228;-81
2023/09/25 11:35:17;;;;;;;2.55;1.40;;;22.70;89.90;;;;;;5032124;28;20237;-80
2023/09/25 11:37:57;;;;;;;2.20;1.38;;;22.80;88.80;;;;;;5028627;28;20220;-79
2023/09/25 11:40:23;;;;;;;1.10;1.00;;;22.90;87.10;;;;;;5034887;28;20955;-79
2023/09/25 11:42:52;;;;;;;2.25;0.98;;;23.00;88.20;;;;;;5030899;28;20255;-79
2023/09/25 11:45:19;;;;;;;1.42;1.02;;;23.10;87.90;;;;;;5024206;28;20217;-79
2023/09/25 11:47:46;;;;;;;4.03;1.27;;;23.10;87.00;;;;;;5037028;28;20601;-82
2023/09/25 11:50:14;;;;;;;2.58;1.30;;;23.20;85.80;;;;;;5033034;28;20236;-81
2023/09/25 11:52:39;;;;;;;4.40;1.50;;;23.20;83.80;;;;;;5028790;28;20703;-81
2023/09/25 11:55:09;;;;;;;2.42;1.25;;;23.20;84.90;;;;;;5013367;28;20245;-81
2023/09/25 11:57:36;;;;;;;2.50;1.20;;;23.20;83.20;;;;;;5020483;28;20268;-81
2023/09/25 12:00:04;;;;;;;2.65;1.10;;;23.20;83.80;;;;;;5002094;28;20746;-82
2023/09/25 12:02:40;;;;;;;42.53;4.85;;;23.20;84.10;;;;;;5011897;28;20227;-82
2023/09/25 12:05:08;;;;;;;2.72;1.40;;;23.20;84.60;;;;;;5050498;28;20315;-78
2023/09/25 12:07:36;;;;;;;5.28;1.88;;;23.20;85.40;;;;;;5020547;28;20323;-81
2023/09/25 12:10:04;;;;;;;1.33;1.17;;;23.20;85.80;;;;;;5020158;28;20228;-78
2023/09/25 12:12:32;;;;;;;2.53;1.40;;;23.30;84.90;;;;;;5022963;28;20255;-83
2023/09/25 12:14:59;;;;;;;1.23;1.10;;;23.30;85.30;;;;;;5023487;28;20296;-83
2023/09/25 12:17:26;;;;;;;1.67;1.17;;;23.40;85.70;;;;;;5012599;28;20253;-83
2023/09/25 12:19:52;;;;;;;1.15;1.05;;;23.40;84.70;;;;;;5008350;28;20223;-83
2023/09/25 12:22:19;;;;;;;2.95;1.15;;;23.40;83.80;;;;;;5018309;28;20221;-81
2023/09/25 12:24:46;;;;;;;2.05;1.45;;;23.50;83.80;;;;;;5013441;28;20233;-82
2023/09/25 12:27:13;;;;;;;5.13;1.60;;;23.40;83.30;;;;;;5013140;28;20233;-81
2023/09/25 12:29:43;;;;;;;3.38;1.17;;;23.40;82.30;;;;;;5023798;28;20236;-81
2023/09/25 12:32:10;;;;;;;1.58;1.20;;;23.30;81.00;;;;;;5015080;28;20317;-81
2023/09/25 12:34:37;;;;;;;2.10;1.05;;;23.30;82.20;;;;;;5028721;28;20655;-83
2023/09/25 12:37:03;;;;;;;1.65;1.20;;;23.30;81.80;;;;;;5035843;28;20224;-81
2023/09/25 12:39:30;;;;;;;1.75;1.10;;;23.20;81.60;;;;;;5023285;28;20229;-83
2023/09/25 12:41:57;;;;;;;1.17;1.02;;;23.10;80.40;;;;;;5017327;28;20233;-81
2023/09/25 12:44:24;;;;;;;3.47;1.52;;;23.00;80.80;;;;;;5016245;28;20236;-82
2023/09/25 12:46:52;;;;;;;1.25;1.13;;;23.00;81.20;;;;;;5017746;28;20217;-80
2023/09/25 12:49:19;;;;;;;2.45;1.10;;;22.90;81.70;;;;;;5025035;28;20231;-79
2023/09/25 12:51:46;;;;;;;2.97;1.45;;;23.00;82.40;;;;;;5020433;28;20253;-83
2023/09/25 12:54:13;;;;;;;1.55;1.08;;;23.00;83.40;;;;;;5027094;28;20753;-82